sensor_id;sensor_type;location;lat;lon;timestamp;P1;durP1;ratioP1;P2;durP2;ratioP2
75061;SDS011;63641;46.526;24.612;2023-01-28T00:00:52;11.57;;;8.95;;
75061;SDS011;63641;46.526;24.612;2023-01-28T00:03:18;10.18;;;8.38;;
75061;SDS011;63641;46.526;24.612;2023-01-28T00:05:45;10.45;;;8.13;;
75061;SDS011;63641;46.526;24.612;2023-01-28T00:08:12;10.25;;;8.18;;
75061;SDS011;63641;46.526;24.612;2023-01-28T00:10:40;11.25;;;8.80;;
75061;SDS011;63641;46.526;24.612;2023-01-28T00:13:08;12.05;;;8.57;;
75061;SDS011;63641;46.526;24.612;2023-01-28T00:15:40;10.15;;;8.07;;
75061;SDS011;63641;46.526;24.612;2023-01-28T00:18:07;10.98;;;8.70;;
75061;SDS011;63641;46.526;24.612;2023-01-28T00:20:33;10.18;;;8.70;;
75061;SDS011;63641;46.526;24.612;2023-01-28T00:23:00;11.60;;;9.57;;
75061;SDS011;63641;46.526;24.612;2023-01-28T00:25:27;14.93;;;11.30;;
75061;SDS011;63641;46.526;24.612;2023-01-28T00:27:54;12.68;;;10.43;;
75061;SDS011;63641;46.526;24.612;2023-01-28T00:30:21;13.30;;;10.80;;
75061;SDS011;63641;46.526;24.612;2023-01-28T00:32:48;15.10;;;11.02;;
75061;SDS011;63641;46.526;24.612;2023-01-28T00:35:15;14.85;;;11.60;;
75061;SDS011;63641;46.526;24.612;2023-01-28T00:37:44;11.48;;;10.10;;
75061;SDS011;63641;46.526;24.612;2023-01-28T00:40:12;12.82;;;10.00;;
75061;SDS011;63641;46.526;24.612;2023-01-28T00:42:39;12.82;;;10.30;;
75061;SDS011;63641;46.526;24.612;2023-01-28T00:45:06;13.13;;;10.57;;
75061;SDS011;63641;46.526;24.612;2023-01-28T00:47:33;13.63;;;10.57;;
75061;SDS011;63641;46.526;24.612;2023-01-28T00:49:59;11.55;;;9.68;;
75061;SDS011;63641;46.526;24.612;2023-01-28T00:52:26;12.80;;;10.43;;
75061;SDS011;63641;46.526;24.612;2023-01-28T00:54:53;10.98;;;9.07;;
75061;SDS011;63641;46.526;24.612;2023-01-28T00:57:20;11.13;;;9.38;;
75061;SDS011;63641;46.526;24.612;2023-01-28T00:59:47;10.88;;;8.57;;
75061;SDS011;63641;46.526;24.612;2023-01-28T01:02:13;11.05;;;8.60;;
75061;SDS011;63641;46.526;24.612;2023-01-28T01:04:40;9.77;;;8.23;;
75061;SDS011;63641;46.526;24.612;2023-01-28T01:07:21;10.73;;;8.23;;
75061;SDS011;63641;46.526;24.612;2023-01-28T01:10:00;11.05;;;8.40;;
75061;SDS011;63641;46.526;24.612;2023-01-28T01:12:28;8.98;;;8.05;;
75061;SDS011;63641;46.526;24.612;2023-01-28T01:14:55;9.68;;;7.38;;
75061;SDS011;63641;46.526;24.612;2023-01-28T01:17:22;8.25;;;7.45;;
75061;SDS011;63641;46.526;24.612;2023-01-28T01:19:49;9.30;;;7.60;;
75061;SDS011;63641;46.526;24.612;2023-01-28T01:22:16;7.78;;;6.97;;
75061;SDS011;63641;46.526;24.612;2023-01-28T01:24:43;7.25;;;6.55;;
75061;SDS011;63641;46.526;24.612;2023-01-28T01:27:10;7.32;;;6.53;;
75061;SDS011;63641;46.526;24.612;2023-01-28T01:29:37;8.15;;;6.53;;
75061;SDS011;63641;46.526;24.612;2023-01-28T01:32:04;9.15;;;7.07;;
75061;SDS011;63641;46.526;24.612;2023-01-28T01:34:31;7.30;;;6.50;;
75061;SDS011;63641;46.526;24.612;2023-01-28T01:36:57;6.60;;;6.00;;
75061;SDS011;63641;46.526;24.612;2023-01-28T01:39:24;7.00;;;6.00;;
75061;SDS011;63641;46.526;24.612;2023-01-28T01:41:51;6.45;;;5.47;;
75061;SDS011;63641;46.526;24.612;2023-01-28T01:50:08;6.57;;;5.00;;
75061;SDS011;63641;46.526;24.612;2023-01-28T01:52:45;6.38;;;5.25;;
75061;SDS011;63641;46.526;24.612;2023-01-28T01:55:18;5.43;;;4.80;;
75061;SDS011;63641;46.526;24.612;2023-01-28T01:57:50;6.95;;;5.93;;
75061;SDS011;63641;46.526;24.612;2023-01-28T02:00:18;5.55;;;5.05;;
75061;SDS011;63641;46.526;24.612;2023-01-28T02:02:45;7.38;;;4.90;;
75061;SDS011;63641;46.526;24.612;2023-01-28T02:05:16;7.05;;;5.65;;
75061;SDS011;63641;46.526;24.612;2023-01-28T02:07:45;5.70;;;5.10;;
75061;SDS011;63641;46.526;24.612;2023-01-28T02:10:15;7.38;;;5.47;;
75061;SDS011;63641;46.526;24.612;2023-01-28T02:12:43;7.68;;;5.35;;
75061;SDS011;63641;46.526;24.612;2023-01-28T02:15:13;6.20;;;5.60;;
75061;SDS011;63641;46.526;24.612;2023-01-28T02:17:43;5.90;;;5.30;;
75061;SDS011;63641;46.526;24.612;2023-01-28T02:20:12;6.05;;;5.07;;
75061;SDS011;63641;46.526;24.612;2023-01-28T02:31:17;6.30;;;5.03;;
75061;SDS011;63641;46.526;24.612;2023-01-28T02:34:05;6.20;;;5.60;;
75061;SDS011;63641;46.526;24.612;2023-01-28T02:37:08;7.03;;;5.25;;
75061;SDS011;63641;46.526;24.612;2023-01-28T02:39:43;6.15;;;5.50;;
75061;SDS011;63641;46.526;24.612;2023-01-28T02:42:16;6.72;;;5.20;;
75061;SDS011;63641;46.526;24.612;2023-01-28T02:44:46;6.05;;;5.40;;
75061;SDS011;63641;46.526;24.612;2023-01-28T02:47:13;6.78;;;5.97;;
75061;SDS011;63641;46.526;24.612;2023-01-28T02:50:01;6.47;;;5.78;;
75061;SDS011;63641;46.526;24.612;2023-01-28T02:56:17;6.82;;;6.10;;
75061;SDS011;63641;46.526;24.612;2023-01-28T02:59:00;7.13;;;6.15;;
75061;SDS011;63641;46.526;24.612;2023-01-28T03:01:54;6.60;;;5.97;;
75061;SDS011;63641;46.526;24.612;2023-01-28T03:04:29;6.22;;;5.63;;
75061;SDS011;63641;46.526;24.612;2023-01-28T03:07:01;6.60;;;5.70;;
75061;SDS011;63641;46.526;24.612;2023-01-28T03:09:32;6.15;;;5.65;;
75061;SDS011;63641;46.526;24.612;2023-01-28T03:15:02;8.20;;;6.00;;
75061;SDS011;63641;46.526;24.612;2023-01-28T03:23:50;5.82;;;5.22;;
75061;SDS011;63641;46.526;24.612;2023-01-28T03:26:46;7.43;;;6.50;;
75061;SDS011;63641;46.526;24.612;2023-01-28T03:29:57;6.65;;;5.95;;
75061;SDS011;63641;46.526;24.612;2023-01-28T03:32:45;5.85;;;5.30;;
75061;SDS011;63641;46.526;24.612;2023-01-28T03:35:31;8.27;;;6.50;;
75061;SDS011;63641;46.526;24.612;2023-01-28T03:38:19;13.90;;;8.15;;
75061;SDS011;63641;46.526;24.612;2023-01-28T03:40:58;16.88;;;9.80;;
75061;SDS011;63641;46.526;24.612;2023-01-28T03:43:29;11.82;;;8.10;;
75061;SDS011;63641;46.526;24.612;2023-01-28T03:45:57;16.58;;;8.80;;
75061;SDS011;63641;46.526;24.612;2023-01-28T03:48:24;11.38;;;7.32;;
75061;SDS011;63641;46.526;24.612;2023-01-28T03:50:53;16.88;;;9.00;;
75061;SDS011;63641;46.526;24.612;2023-01-28T03:53:21;21.63;;;11.43;;
75061;SDS011;63641;46.526;24.612;2023-01-28T03:55:48;17.80;;;11.18;;
75061;SDS011;63641;46.526;24.612;2023-01-28T03:58:16;19.13;;;10.90;;
75061;SDS011;63641;46.526;24.612;2023-01-28T04:00:44;20.23;;;12.30;;
75061;SDS011;63641;46.526;24.612;2023-01-28T04:03:16;21.02;;;11.82;;
75061;SDS011;63641;46.526;24.612;2023-01-28T04:05:45;18.95;;;12.05;;
75061;SDS011;63641;46.526;24.612;2023-01-28T04:08:32;17.23;;;9.77;;
75061;SDS011;63641;46.526;24.612;2023-01-28T04:10:59;17.77;;;10.35;;
75061;SDS011;63641;46.526;24.612;2023-01-28T04:13:41;16.52;;;9.10;;
75061;SDS011;63641;46.526;24.612;2023-01-28T04:16:09;16.63;;;9.82;;
75061;SDS011;63641;46.526;24.612;2023-01-28T04:18:36;16.20;;;9.65;;
75061;SDS011;63641;46.526;24.612;2023-01-28T04:21:03;16.58;;;9.57;;
75061;SDS011;63641;46.526;24.612;2023-01-28T04:23:30;11.80;;;7.72;;
75061;SDS011;63641;46.526;24.612;2023-01-28T04:25:57;10.52;;;6.95;;
75061;SDS011;63641;46.526;24.612;2023-01-28T04:28:24;13.00;;;7.88;;
75061;SDS011;63641;46.526;24.612;2023-01-28T04:30:51;8.32;;;6.30;;
75061;SDS011;63641;46.526;24.612;2023-01-28T04:33:18;8.07;;;5.63;;
75061;SDS011;63641;46.526;24.612;2023-01-28T04:35:45;5.63;;;4.93;;
75061;SDS011;63641;46.526;24.612;2023-01-28T04:38:12;6.25;;;5.63;;
75061;SDS011;63641;46.526;24.612;2023-01-28T04:40:38;7.88;;;6.07;;
75061;SDS011;63641;46.526;24.612;2023-01-28T04:43:05;5.00;;;4.50;;
75061;SDS011;63641;46.526;24.612;2023-01-28T04:45:32;6.30;;;4.97;;
75061;SDS011;63641;46.526;24.612;2023-01-28T04:47:58;5.82;;;4.90;;
75061;SDS011;63641;46.526;24.612;2023-01-28T04:50:26;5.95;;;5.35;;
75061;SDS011;63641;46.526;24.612;2023-01-28T04:52:52;5.43;;;4.53;;
75061;SDS011;63641;46.526;24.612;2023-01-28T04:55:19;6.38;;;4.82;;
75061;SDS011;63641;46.526;24.612;2023-01-28T04:57:46;6.10;;;4.88;;
75061;SDS011;63641;46.526;24.612;2023-01-28T05:00:16;6.38;;;5.03;;
75061;SDS011;63641;46.526;24.612;2023-01-28T05:02:43;7.00;;;5.80;;
75061;SDS011;63641;46.526;24.612;2023-01-28T05:05:09;7.20;;;5.47;;
75061;SDS011;63641;46.526;24.612;2023-01-28T05:07:36;8.00;;;6.60;;
75061;SDS011;63641;46.526;24.612;2023-01-28T05:10:03;7.70;;;6.18;;
75061;SDS011;63641;46.526;24.612;2023-01-28T05:12:30;10.45;;;7.65;;
75061;SDS011;63641;46.526;24.612;2023-01-28T05:14:59;9.27;;;7.47;;
75061;SDS011;63641;46.526;24.612;2023-01-28T05:17:26;12.70;;;8.02;;
75061;SDS011;63641;46.526;24.612;2023-01-28T05:19:54;9.50;;;7.53;;
75061;SDS011;63641;46.526;24.612;2023-01-28T05:22:21;12.88;;;8.13;;
75061;SDS011;63641;46.526;24.612;2023-01-28T05:24:48;10.85;;;7.80;;
75061;SDS011;63641;46.526;24.612;2023-01-28T05:27:14;9.30;;;6.93;;
75061;SDS011;63641;46.526;24.612;2023-01-28T05:29:41;9.77;;;7.43;;
75061;SDS011;63641;46.526;24.612;2023-01-28T05:32:08;10.30;;;7.18;;
75061;SDS011;63641;46.526;24.612;2023-01-28T05:34:35;8.95;;;7.32;;
75061;SDS011;63641;46.526;24.612;2023-01-28T05:37:02;10.35;;;8.07;;
75061;SDS011;63641;46.526;24.612;2023-01-28T05:39:28;11.07;;;7.95;;
75061;SDS011;63641;46.526;24.612;2023-01-28T05:41:56;11.98;;;8.80;;
75061;SDS011;63641;46.526;24.612;2023-01-28T05:44:23;30.80;;;11.80;;
75061;SDS011;63641;46.526;24.612;2023-01-28T05:46:50;11.73;;;8.93;;
75061;SDS011;63641;46.526;24.612;2023-01-28T05:49:16;10.45;;;7.47;;
75061;SDS011;63641;46.526;24.612;2023-01-28T05:51:43;9.98;;;7.65;;
75061;SDS011;63641;46.526;24.612;2023-01-28T05:54:10;8.63;;;6.93;;
75061;SDS011;63641;46.526;24.612;2023-01-28T05:56:37;7.10;;;6.30;;
75061;SDS011;63641;46.526;24.612;2023-01-28T05:59:05;7.75;;;6.50;;
75061;SDS011;63641;46.526;24.612;2023-01-28T06:01:32;6.70;;;5.70;;
75061;SDS011;63641;46.526;24.612;2023-01-28T06:03:58;7.72;;;6.38;;
75061;SDS011;63641;46.526;24.612;2023-01-28T06:06:25;9.32;;;6.32;;
75061;SDS011;63641;46.526;24.612;2023-01-28T06:08:52;9.68;;;7.40;;
75061;SDS011;63641;46.526;24.612;2023-01-28T06:11:19;10.85;;;8.02;;
75061;SDS011;63641;46.526;24.612;2023-01-28T06:13:46;6.65;;;5.60;;
75061;SDS011;63641;46.526;24.612;2023-01-28T06:16:12;6.80;;;5.97;;
75061;SDS011;63641;46.526;24.612;2023-01-28T06:18:39;9.18;;;6.15;;
75061;SDS011;63641;46.526;24.612;2023-01-28T06:21:06;8.40;;;6.35;;
75061;SDS011;63641;46.526;24.612;2023-01-28T06:23:33;7.57;;;5.50;;
75061;SDS011;63641;46.526;24.612;2023-01-28T06:26:00;6.00;;;5.28;;
75061;SDS011;63641;46.526;24.612;2023-01-28T06:28:27;6.47;;;5.40;;
75061;SDS011;63641;46.526;24.612;2023-01-28T06:30:54;7.20;;;5.95;;
75061;SDS011;63641;46.526;24.612;2023-01-28T06:33:20;6.40;;;5.63;;
75061;SDS011;63641;46.526;24.612;2023-01-28T06:35:49;7.72;;;6.32;;
75061;SDS011;63641;46.526;24.612;2023-01-28T06:38:16;7.22;;;4.85;;
75061;SDS011;63641;46.526;24.612;2023-01-28T06:40:43;7.18;;;5.90;;
75061;SDS011;63641;46.526;24.612;2023-01-28T06:43:09;7.78;;;5.40;;
75061;SDS011;63641;46.526;24.612;2023-01-28T06:45:36;20.23;;;6.75;;
75061;SDS011;63641;46.526;24.612;2023-01-28T06:48:03;11.27;;;7.40;;
75061;SDS011;63641;46.526;24.612;2023-01-28T06:50:33;10.70;;;7.40;;
75061;SDS011;63641;46.526;24.612;2023-01-28T06:53:00;9.93;;;7.53;;
75061;SDS011;63641;46.526;24.612;2023-01-28T06:55:27;14.10;;;8.85;;
75061;SDS011;63641;46.526;24.612;2023-01-28T06:57:54;15.98;;;9.73;;
75061;SDS011;63641;46.526;24.612;2023-01-28T07:00:20;15.85;;;10.75;;
75061;SDS011;63641;46.526;24.612;2023-01-28T07:02:47;14.98;;;9.90;;
75061;SDS011;63641;46.526;24.612;2023-01-28T07:05:14;14.00;;;9.52;;
75061;SDS011;63641;46.526;24.612;2023-01-28T07:07:41;11.80;;;9.10;;
75061;SDS011;63641;46.526;24.612;2023-01-28T07:10:08;16.30;;;11.63;;
75061;SDS011;63641;46.526;24.612;2023-01-28T07:12:35;16.30;;;12.10;;
75061;SDS011;63641;46.526;24.612;2023-01-28T07:15:02;18.83;;;14.18;;
75061;SDS011;63641;46.526;24.612;2023-01-28T07:17:29;20.23;;;14.10;;
75061;SDS011;63641;46.526;24.612;2023-01-28T07:19:56;16.23;;;11.57;;
75061;SDS011;63641;46.526;24.612;2023-01-28T07:22:23;11.02;;;7.35;;
75061;SDS011;63641;46.526;24.612;2023-01-28T07:24:50;9.85;;;7.90;;
75061;SDS011;63641;46.526;24.612;2023-01-28T07:27:17;9.80;;;7.72;;
75061;SDS011;63641;46.526;24.612;2023-01-28T07:29:43;16.83;;;12.48;;
75061;SDS011;63641;46.526;24.612;2023-01-28T07:32:10;17.35;;;11.98;;
75061;SDS011;63641;46.526;24.612;2023-01-28T07:34:37;17.38;;;12.32;;
75061;SDS011;63641;46.526;24.612;2023-01-28T07:37:06;27.00;;;18.80;;
75061;SDS011;63641;46.526;24.612;2023-01-28T07:39:33;26.80;;;19.05;;
75061;SDS011;63641;46.526;24.612;2023-01-28T07:42:00;22.00;;;16.98;;
75061;SDS011;63641;46.526;24.612;2023-01-28T07:44:27;21.38;;;17.15;;
75061;SDS011;63641;46.526;24.612;2023-01-28T07:46:54;22.42;;;16.65;;
75061;SDS011;63641;46.526;24.612;2023-01-28T07:49:21;24.80;;;16.70;;
75061;SDS011;63641;46.526;24.612;2023-01-28T07:51:47;21.20;;;16.75;;
75061;SDS011;63641;46.526;24.612;2023-01-28T07:54:16;20.52;;;14.43;;
75061;SDS011;63641;46.526;24.612;2023-01-28T07:56:42;19.58;;;14.63;;
75061;SDS011;63641;46.526;24.612;2023-01-28T07:59:09;19.15;;;13.80;;
75061;SDS011;63641;46.526;24.612;2023-01-28T08:01:36;20.48;;;14.45;;
75061;SDS011;63641;46.526;24.612;2023-01-28T08:04:03;19.30;;;13.57;;
75061;SDS011;63641;46.526;24.612;2023-01-28T08:06:30;18.38;;;14.25;;
75061;SDS011;63641;46.526;24.612;2023-01-28T08:09:06;17.60;;;13.80;;
75061;SDS011;63641;46.526;24.612;2023-01-28T08:11:36;23.25;;;16.92;;
75061;SDS011;63641;46.526;24.612;2023-01-28T08:14:04;17.00;;;13.40;;
75061;SDS011;63641;46.526;24.612;2023-01-28T08:16:31;22.77;;;17.50;;
75061;SDS011;63641;46.526;24.612;2023-01-28T08:18:57;20.65;;;14.38;;
75061;SDS011;63641;46.526;24.612;2023-01-28T08:21:24;27.13;;;21.02;;
75061;SDS011;63641;46.526;24.612;2023-01-28T08:23:51;20.20;;;15.75;;
75061;SDS011;63641;46.526;24.612;2023-01-28T08:26:18;19.90;;;15.02;;
75061;SDS011;63641;46.526;24.612;2023-01-28T08:28:44;18.85;;;15.52;;
75061;SDS011;63641;46.526;24.612;2023-01-28T08:31:11;20.83;;;14.77;;
75061;SDS011;63641;46.526;24.612;2023-01-28T08:33:38;19.98;;;14.18;;
75061;SDS011;63641;46.526;24.612;2023-01-28T08:36:05;15.07;;;11.32;;
75061;SDS011;63641;46.526;24.612;2023-01-28T08:38:32;15.25;;;12.38;;
75061;SDS011;63641;46.526;24.612;2023-01-28T08:40:59;18.77;;;13.63;;
75061;SDS011;63641;46.526;24.612;2023-01-28T08:43:26;22.25;;;15.50;;
75061;SDS011;63641;46.526;24.612;2023-01-28T08:45:52;20.73;;;15.13;;
75061;SDS011;63641;46.526;24.612;2023-01-28T08:48:19;24.05;;;16.40;;
75061;SDS011;63641;46.526;24.612;2023-01-28T08:50:46;23.75;;;17.67;;
75061;SDS011;63641;46.526;24.612;2023-01-28T08:53:14;27.60;;;20.95;;
75061;SDS011;63641;46.526;24.612;2023-01-28T08:55:43;24.27;;;20.02;;
75061;SDS011;63641;46.526;24.612;2023-01-28T08:58:12;29.13;;;22.67;;
75061;SDS011;63641;46.526;24.612;2023-01-28T09:00:41;25.15;;;21.00;;
75061;SDS011;63641;46.526;24.612;2023-01-28T09:03:08;28.00;;;18.98;;
75061;SDS011;63641;46.526;24.612;2023-01-28T09:05:35;25.10;;;18.45;;
75061;SDS011;63641;46.526;24.612;2023-01-28T09:08:04;26.65;;;17.77;;
75061;SDS011;63641;46.526;24.612;2023-01-28T09:10:32;24.77;;;18.23;;
75061;SDS011;63641;46.526;24.612;2023-01-28T09:13:04;21.05;;;17.38;;
75061;SDS011;63641;46.526;24.612;2023-01-28T09:15:32;21.05;;;16.70;;
75061;SDS011;63641;46.526;24.612;2023-01-28T09:17:59;20.65;;;15.73;;
75061;SDS011;63641;46.526;24.612;2023-01-28T09:20:26;19.25;;;15.18;;
75061;SDS011;63641;46.526;24.612;2023-01-28T09:22:53;22.30;;;15.82;;
75061;SDS011;63641;46.526;24.612;2023-01-28T09:25:20;19.70;;;14.85;;
75061;SDS011;63641;46.526;24.612;2023-01-28T09:27:47;17.17;;;13.27;;
75061;SDS011;63641;46.526;24.612;2023-01-28T09:30:13;17.67;;;13.98;;
75061;SDS011;63641;46.526;24.612;2023-01-28T09:32:41;13.88;;;11.63;;
75061;SDS011;63641;46.526;24.612;2023-01-28T09:35:08;12.45;;;9.73;;
75061;SDS011;63641;46.526;24.612;2023-01-28T09:37:35;13.02;;;9.38;;
75061;SDS011;63641;46.526;24.612;2023-01-28T09:40:02;12.45;;;10.00;;
75061;SDS011;63641;46.526;24.612;2023-01-28T09:45:43;9.52;;;7.75;;
75061;SDS011;63641;46.526;24.612;2023-01-28T09:48:13;9.68;;;7.65;;
75061;SDS011;63641;46.526;24.612;2023-01-28T09:50:45;9.98;;;8.85;;
75061;SDS011;63641;46.526;24.612;2023-01-28T09:53:19;10.77;;;9.68;;
75061;SDS011;63641;46.526;24.612;2023-01-28T09:55:48;14.27;;;10.50;;
75061;SDS011;63641;46.526;24.612;2023-01-28T09:58:19;13.38;;;10.07;;
75061;SDS011;63641;46.526;24.612;2023-01-28T10:01:00;12.88;;;10.00;;
75061;SDS011;63641;46.526;24.612;2023-01-28T10:03:46;13.73;;;10.30;;
75061;SDS011;63641;46.526;24.612;2023-01-28T10:09:24;11.73;;;9.85;;
75061;SDS011;63641;46.526;24.612;2023-01-28T10:17:53;14.67;;;10.57;;
75061;SDS011;63641;46.526;24.612;2023-01-28T10:20:46;12.50;;;9.90;;
75061;SDS011;63641;46.526;24.612;2023-01-28T10:23:19;9.68;;;8.45;;
75061;SDS011;63641;46.526;24.612;2023-01-28T10:25:52;9.38;;;7.28;;
75061;SDS011;63641;46.526;24.612;2023-01-28T10:28:23;10.02;;;7.57;;
75061;SDS011;63641;46.526;24.612;2023-01-28T10:30:53;10.05;;;8.70;;
75061;SDS011;63641;46.526;24.612;2023-01-28T10:33:36;10.15;;;7.80;;
75061;SDS011;63641;46.526;24.612;2023-01-28T10:36:05;11.15;;;9.93;;
75061;SDS011;63641;46.526;24.612;2023-01-28T10:41:00;10.67;;;9.23;;
75061;SDS011;63641;46.526;24.612;2023-01-28T10:43:30;11.13;;;9.38;;
75061;SDS011;63641;46.526;24.612;2023-01-28T10:46:13;10.98;;;8.65;;
75061;SDS011;63641;46.526;24.612;2023-01-28T10:48:47;12.07;;;10.15;;
75061;SDS011;63641;46.526;24.612;2023-01-28T10:51:37;14.20;;;11.05;;
75061;SDS011;63641;46.526;24.612;2023-01-28T10:54:23;14.68;;;11.15;;
75061;SDS011;63641;46.526;24.612;2023-01-28T10:56:55;13.50;;;10.13;;
75061;SDS011;63641;46.526;24.612;2023-01-28T10:59:27;13.80;;;10.65;;
75061;SDS011;63641;46.526;24.612;2023-01-28T11:01:57;12.30;;;9.70;;
75061;SDS011;63641;46.526;24.612;2023-01-28T11:04:28;12.40;;;10.13;;
75061;SDS011;63641;46.526;24.612;2023-01-28T11:07:02;12.25;;;10.10;;
75061;SDS011;63641;46.526;24.612;2023-01-28T11:09:32;12.75;;;10.23;;
75061;SDS011;63641;46.526;24.612;2023-01-28T11:12:11;17.83;;;11.63;;
75061;SDS011;63641;46.526;24.612;2023-01-28T11:14:53;15.35;;;12.40;;
75061;SDS011;63641;46.526;24.612;2023-01-28T11:17:25;14.55;;;10.88;;
75061;SDS011;63641;46.526;24.612;2023-01-28T11:19:58;12.55;;;10.93;;
75061;SDS011;63641;46.526;24.612;2023-01-28T11:22:35;17.95;;;11.73;;
75061;SDS011;63641;46.526;24.612;2023-01-28T11:28:01;16.77;;;13.02;;
75061;SDS011;63641;46.526;24.612;2023-01-28T11:30:34;16.35;;;12.63;;
75061;SDS011;63641;46.526;24.612;2023-01-28T11:33:16;15.90;;;13.65;;
75061;SDS011;63641;46.526;24.612;2023-01-28T11:35:54;19.73;;;15.05;;
75061;SDS011;63641;46.526;24.612;2023-01-28T11:38:23;18.58;;;14.90;;
75061;SDS011;63641;46.526;24.612;2023-01-28T11:40:58;19.25;;;15.13;;
75061;SDS011;63641;46.526;24.612;2023-01-28T11:43:29;20.42;;;15.25;;
75061;SDS011;63641;46.526;24.612;2023-01-28T12:06:25;18.93;;;13.67;;
75061;SDS011;63641;46.526;24.612;2023-01-28T12:38:39;19.45;;;13.63;;
75061;SDS011;63641;46.526;24.612;2023-01-28T12:41:50;18.13;;;13.80;;
75061;SDS011;63641;46.526;24.612;2023-01-28T12:44:48;16.38;;;13.23;;
75061;SDS011;63641;46.526;24.612;2023-01-28T12:47:21;18.05;;;14.30;;
75061;SDS011;63641;46.526;24.612;2023-01-28T12:49:54;17.50;;;13.67;;
75061;SDS011;63641;46.526;24.612;2023-01-28T12:52:27;17.25;;;13.57;;
75061;SDS011;63641;46.526;24.612;2023-01-28T12:54:59;16.25;;;13.05;;
75061;SDS011;63641;46.526;24.612;2023-01-28T12:57:38;17.33;;;12.90;;
75061;SDS011;63641;46.526;24.612;2023-01-28T13:03:09;15.68;;;12.35;;
75061;SDS011;63641;46.526;24.612;2023-01-28T13:05:38;20.58;;;14.25;;
75061;SDS011;63641;46.526;24.612;2023-01-28T13:10:43;19.27;;;14.52;;
75061;SDS011;63641;46.526;24.612;2023-01-28T13:15:46;16.33;;;13.85;;
75061;SDS011;63641;46.526;24.612;2023-01-28T13:21:02;18.00;;;15.55;;
75061;SDS011;63641;46.526;24.612;2023-01-28T13:26:25;18.33;;;14.68;;
75061;SDS011;63641;46.526;24.612;2023-01-28T13:29:06;23.10;;;17.65;;
75061;SDS011;63641;46.526;24.612;2023-01-28T13:31:58;21.40;;;16.70;;
75061;SDS011;63641;46.526;24.612;2023-01-28T13:34:37;20.77;;;16.02;;
75061;SDS011;63641;46.526;24.612;2023-01-28T13:39:38;27.95;;;19.95;;
75061;SDS011;63641;46.526;24.612;2023-01-28T13:42:21;18.95;;;15.88;;
75061;SDS011;63641;46.526;24.612;2023-01-28T13:44:53;24.73;;;17.45;;
75061;SDS011;63641;46.526;24.612;2023-01-28T13:52:49;18.77;;;15.95;;
75061;SDS011;63641;46.526;24.612;2023-01-28T14:10:15;18.50;;;13.50;;
75061;SDS011;63641;46.526;24.612;2023-01-28T14:12:52;16.92;;;12.70;;
75061;SDS011;63641;46.526;24.612;2023-01-28T14:18:25;15.05;;;11.73;;
75061;SDS011;63641;46.526;24.612;2023-01-28T14:20:55;13.52;;;11.32;;
75061;SDS011;63641;46.526;24.612;2023-01-28T14:23:27;16.63;;;11.25;;
75061;SDS011;63641;46.526;24.612;2023-01-28T14:28:43;14.65;;;11.27;;
75061;SDS011;63641;46.526;24.612;2023-01-28T14:31:25;17.38;;;12.75;;
75061;SDS011;63641;46.526;24.612;2023-01-28T14:34:03;15.75;;;13.00;;
75061;SDS011;63641;46.526;24.612;2023-01-28T14:36:38;19.17;;;13.30;;
75061;SDS011;63641;46.526;24.612;2023-01-28T14:39:11;15.85;;;12.27;;
75061;SDS011;63641;46.526;24.612;2023-01-28T14:42:01;17.15;;;13.82;;
75061;SDS011;63641;46.526;24.612;2023-01-28T14:44:32;14.75;;;12.90;;
75061;SDS011;63641;46.526;24.612;2023-01-28T14:47:20;15.52;;;13.02;;
75061;SDS011;63641;46.526;24.612;2023-01-28T14:56:08;14.20;;;11.60;;
75061;SDS011;63641;46.526;24.612;2023-01-28T14:58:45;15.10;;;11.50;;
75061;SDS011;63641;46.526;24.612;2023-01-28T15:03:47;17.60;;;12.80;;
75061;SDS011;63641;46.526;24.612;2023-01-28T15:06:15;21.67;;;13.75;;
75061;SDS011;63641;46.526;24.612;2023-01-28T15:08:43;40.80;;;24.33;;
75061;SDS011;63641;46.526;24.612;2023-01-28T15:11:12;28.10;;;20.00;;
75061;SDS011;63641;46.526;24.612;2023-01-28T15:13:45;21.58;;;14.45;;
75061;SDS011;63641;46.526;24.612;2023-01-28T15:16:21;18.15;;;13.02;;
75061;SDS011;63641;46.526;24.612;2023-01-28T15:18:50;17.95;;;12.07;;
75061;SDS011;63641;46.526;24.612;2023-01-28T15:21:18;17.42;;;12.80;;
75061;SDS011;63641;46.526;24.612;2023-01-28T15:23:47;17.52;;;12.70;;
75061;SDS011;63641;46.526;24.612;2023-01-28T15:26:25;14.57;;;12.23;;
75061;SDS011;63641;46.526;24.612;2023-01-28T15:28:53;14.93;;;11.18;;
75061;SDS011;63641;46.526;24.612;2023-01-28T15:31:22;14.88;;;11.43;;
75061;SDS011;63641;46.526;24.612;2023-01-28T15:36:36;11.73;;;10.00;;
75061;SDS011;63641;46.526;24.612;2023-01-28T15:39:03;12.38;;;10.10;;
75061;SDS011;63641;46.526;24.612;2023-01-28T15:41:39;16.98;;;12.55;;
75061;SDS011;63641;46.526;24.612;2023-01-28T15:44:16;15.43;;;10.82;;
75061;SDS011;63641;46.526;24.612;2023-01-28T15:46:46;14.95;;;10.90;;
75061;SDS011;63641;46.526;24.612;2023-01-28T15:49:13;14.95;;;11.10;;
75061;SDS011;63641;46.526;24.612;2023-01-28T15:51:46;13.50;;;10.98;;
75061;SDS011;63641;46.526;24.612;2023-01-28T15:56:43;19.33;;;13.57;;
75061;SDS011;63641;46.526;24.612;2023-01-28T15:59:25;15.10;;;11.50;;
75061;SDS011;63641;46.526;24.612;2023-01-28T16:04:57;16.33;;;11.98;;
75061;SDS011;63641;46.526;24.612;2023-01-28T16:07:42;17.35;;;14.38;;
75061;SDS011;63641;46.526;24.612;2023-01-28T16:10:21;16.52;;;12.25;;
75061;SDS011;63641;46.526;24.612;2023-01-28T16:12:52;15.27;;;12.07;;
75061;SDS011;63641;46.526;24.612;2023-01-28T16:15:23;14.65;;;11.32;;
75061;SDS011;63641;46.526;24.612;2023-01-28T16:17:50;17.80;;;12.50;;
75061;SDS011;63641;46.526;24.612;2023-01-28T16:20:22;14.75;;;12.52;;
75061;SDS011;63641;46.526;24.612;2023-01-28T16:22:53;13.68;;;11.15;;
75061;SDS011;63641;46.526;24.612;2023-01-28T16:25:32;16.35;;;10.98;;
75061;SDS011;63641;46.526;24.612;2023-01-28T16:28:04;14.55;;;11.25;;
75061;SDS011;63641;46.526;24.612;2023-01-28T16:30:42;13.52;;;10.05;;
75061;SDS011;63641;46.526;24.612;2023-01-28T16:33:16;15.38;;;10.52;;
75061;SDS011;63641;46.526;24.612;2023-01-28T16:35:45;14.00;;;10.60;;
75061;SDS011;63641;46.526;24.612;2023-01-28T16:38:30;14.65;;;11.32;;
75061;SDS011;63641;46.526;24.612;2023-01-28T16:40:57;13.55;;;10.90;;
75061;SDS011;63641;46.526;24.612;2023-01-28T16:43:24;12.93;;;10.70;;
75061;SDS011;63641;46.526;24.612;2023-01-28T16:45:51;14.75;;;11.02;;
75061;SDS011;63641;46.526;24.612;2023-01-28T16:48:18;14.50;;;10.82;;
75061;SDS011;63641;46.526;24.612;2023-01-28T16:50:44;16.20;;;11.70;;
75061;SDS011;63641;46.526;24.612;2023-01-28T16:53:17;16.63;;;13.45;;
75061;SDS011;63641;46.526;24.612;2023-01-28T16:55:49;16.85;;;12.90;;
75061;SDS011;63641;46.526;24.612;2023-01-28T16:58:21;20.52;;;15.88;;
75061;SDS011;63641;46.526;24.612;2023-01-28T17:03:18;16.52;;;13.13;;
75061;SDS011;63641;46.526;24.612;2023-01-28T17:05:45;16.33;;;13.15;;
75061;SDS011;63641;46.526;24.612;2023-01-28T17:08:12;17.15;;;12.82;;
75061;SDS011;63641;46.526;24.612;2023-01-28T17:10:39;15.90;;;12.05;;
75061;SDS011;63641;46.526;24.612;2023-01-28T17:13:06;14.63;;;11.75;;
75061;SDS011;63641;46.526;24.612;2023-01-28T17:15:33;17.45;;;13.20;;